• Join FlightAware (Why Join?)
  • Login
  • US Flag 
11:13AM EDT


 

Airport Tracker/Info


-or-


 

Live Flight TrackerFlight Track Log ✈ SWA607 ✈ 01-Jun-2013 ✈ KSMF - KPHX

Flight Track Log - Related Links

Times and Time Zones

All times are in EDT time to prevent confusion due to time zone crossing. See the SWA607 flight status page for this flight to view local times or setup timezone preferences in your user account.

Time Position Orientation Groundspeed Altitude Reporting Facility
EDT Latitude Longitude Course Direction KTS MPH feet Rate Location/Type
01:08PM 38.7333 -121.5167 108° East 258 297 5,000  Level Northern Cal TRACON
01:09PM 38.6667 -121.4833 159° South 276 318 7,900 2,760 Climbing Northern Cal TRACON
01:10PM 38.6500 -121.3833 102° East 321 369 10,600 2,340 Climbing Northern Cal TRACON
01:11PM 38.6333 -121.2667 100° East 332 382 12,600 2,040 Climbing Northern Cal TRACON
01:12PM 38.5647 -120.9289 78° East  Level FlightAware Approximate
01:12PM 38.6111 -121.1681 106° East 354 407 14,500  Level Oakland Center
01:13PM 38.5908 -121.0456 102° East 364 419 17,000 2,340 Climbing Oakland Center
01:14PM 38.5650 -120.8875 102° East 375 432 19,300 2,040 Climbing Oakland Center
01:15PM 38.5428 -120.7486 102° East 392 451 21,200 1,920 Climbing Oakland Center
01:16PM 38.5183 -120.6053 102° East 405 466 23,300 1,800 Climbing Oakland Center
01:17PM 38.4947 -120.4606 102° East 412 474 24,900 1,440 Climbing Oakland Center
01:18PM 38.4694 -120.3119 102° East 424 488 26,300 1,380 Climbing Oakland Center
01:19PM 38.4428 -120.1583 102° East 437 503 27,800 1,320 Climbing Oakland Center
01:20PM 38.4164 -120.0039 102° East 446 513 29,100 1,560 Climbing Oakland Center
01:21PM 38.3883 -119.8483 103° East 450 518 31,100 1,740 Climbing Oakland Center
01:22PM 38.3611 -119.6983 103° East 439 505 32,700 1,380 Climbing Oakland Center
01:23PM 38.3356 -119.5492 102° East 431 496 34,000 1,080 Climbing Oakland Center
01:24PM 38.3061 -119.3869 103° East 430 495 35,000 480 Climbing Oakland Center
01:25PM 38.2783 -119.2369 103° East 435 501 35,000  Level Oakland Center
01:26PM 38.2514 -119.0858 103° East 439 505 35,000  Level Oakland Center
01:27PM 38.2189 -118.9022 103° East 443 510 35,000  Level Oakland Center
01:28PM 38.1897 -118.7478 103° East 449 517 35,000  Level Oakland Center
01:29PM 38.1411 -118.6031 113° Southeast 449 517 35,000  Level Oakland Center
01:30PM 38.0669 -118.4969 132° Southeast 450 518 35,000  Level Oakland Center
01:31PM 37.9658 -118.3558 132° Southeast 452 520 35,000  Level Oakland Center
01:32PM 37.8850 -118.2333 130° Southeast 453 521 35,000  Level Oakland Center
01:33PM 37.8178 -118.0986 122° Southeast 453 521 35,000  Level Oakland Center
01:34PM 37.7492 -117.9642 123° Southeast 456 525 35,000  Level Oakland Center
01:35PM 37.6817 -117.8297 122° Southeast 456 525 35,000  Level Oakland Center
01:36PM 37.6142 -117.6986 123° Southeast 450 518 35,000  Level Oakland Center
01:37PM 37.5436 -117.5689 124° Southeast 450 518 35,000  Level Oakland Center
01:38PM 37.4503 -117.4650 139° Southeast 449 517 35,000  Level Oakland Center
01:39PM 37.3394 -117.3419 139° Southeast 445 512 35,000  Level Oakland Center
01:40PM 37.2461 -117.2389 139° Southeast 449 517 35,000  Level Oakland Center
01:41PM 37.1531 -117.1356 138° Southeast 448 516 35,000  Level Oakland Center
01:43PM 37.0603 -117.0356 139° Southeast 448 516 35,000  Level Los Angeles Center
01:44PM 36.9667 -116.9308 138° Southeast 450 518 35,000  Level Los Angeles Center
01:45PM 36.8536 -116.8078 139° Southeast 449 517 35,000  Level Los Angeles Center
01:46PM 36.7747 -116.6842 129° Southeast 459 528 35,000  Level Los Angeles Center
01:47PM 36.7175 -116.5447 117° Southeast 455 524 35,000  Level Los Angeles Center
01:48PM 36.6583 -116.4031 117° Southeast 459 528 35,000  Level Los Angeles Center
01:49PM 36.5997 -116.2636 118° Southeast 457 526 35,000  Level Los Angeles Center
01:50PM 36.5394 -116.1244 118° Southeast 457 526 35,000  Level Los Angeles Center
01:51PM 36.4689 -115.9533 117° Southeast 462 532 35,000  Level Los Angeles Center
01:52PM 36.4078 -115.8153 119° Southeast 459 528 35,000  Level Los Angeles Center
01:53PM 36.3478 -115.6753 118° Southeast 460 529 35,000  Level Los Angeles Center
01:54PM 36.2808 -115.5164 118° Southeast 465 535 35,000  Level Los Angeles Center
01:55PM 36.2197 -115.3747 118° Southeast 469 540 35,000  Level Los Angeles Center
01:56PM 36.1592 -115.2350 118° Southeast 464 534 35,000  Level Los Angeles Center
01:57PM 36.0944 -115.0908 119° Southeast 478 550 35,000  Level Los Angeles Center
01:58PM 36.0328 -114.9492 118° Southeast 471 542 35,000  Level Los Angeles Center
01:59PM 35.9675 -114.8083 120° Southeast 471 542 35,000  Level Los Angeles Center
02:00PM 35.8803 -114.6450 123° Southeast 473 544 35,000  Level Los Angeles Center
02:01PM 35.8083 -114.5075 123° Southeast 476 548 35,000  Level Los Angeles Center
02:02PM 35.7364 -114.3711 123° Southeast 475 547 35,000  Level Los Angeles Center
02:03PM 35.6608 -114.2306 123° Southeast 476 548 35,000  Level Los Angeles Center
02:04PM 35.5883 -114.0933 123° Southeast 479 551 35,000  Level Los Angeles Center
02:05PM 35.5158 -113.9578 123° Southeast 480 552 35,000 -480 Level Los Angeles Center
02:06PM 35.4411 -113.8211 124° Southeast 482 555 34,100 -2,040 Descending Los Angeles Center
02:07PM 35.3525 -113.6567 123° Southeast 486 559 30,900 -2,520 Descending Los Angeles Center
02:08PM 35.2789 -113.5225 124° Southeast 483 556 29,000 -960 Descending Los Angeles Center
02:09PM 35.2058 -113.3894 124° Southeast 470 541 29,000  Level Los Angeles Center
02:10PM 35.1361 -113.2625 124° Southeast 469 540 29,000  Level Los Angeles Center
02:12PM 35.0506 -113.1031 123° Southeast 476 548 29,000  Level Los Angeles Center
02:13PM 34.9767 -112.9714 124° Southeast 478 550 29,000  Level Los Angeles Center
02:14PM 34.8878 -112.8108 124° Southeast 480 552 29,000 -60 Level Albuquerque Center
02:15PM 34.8136 -112.6792 124° Southeast 478 550 28,900 -960 Descending Albuquerque Center
02:16PM 34.7397 -112.5478 124° Southeast 476 548 27,100 -2,100 Descending Albuquerque Center
02:17PM 34.6575 -112.4336 131° Southeast 456 525 24,700 -2,280 Descending Albuquerque Center
02:18PM 34.5633 -112.3469 143° Southeast 438 504 22,500 -2,340 Descending Albuquerque Center
02:19PM 34.4586 -112.2447 141° Southeast 410 472 20,000 -1,680 Descending Albuquerque Center
02:20PM 34.3628 -112.2083 163° South 375 432 19,100 -1,440 Descending Albuquerque Center
02:21PM 34.2639 -112.1825 168° South 368 423 17,100 -1,920 Descending Albuquerque Center
02:22PM 34.1683 -112.1578 168° South 357 411 15,200 -1,500 Descending Albuquerque Center
02:23PM 34.0772 -112.1372 169° South 339 390 14,000 -1,380 Descending Albuquerque Center
02:24PM 33.9919 -112.1456 185° South 315 362 12,400 -1,620 Descending Albuquerque Center
02:25PM 33.9092 -112.1561 186° South 303 349 10,800 -1,620 Descending Albuquerque Center
02:26PM 33.8111 -112.1764 190° South 300 345 9,100 -1,380 Descending Albuquerque Center
02:27PM 33.7300 -112.1931 190° South 297 342 8,000 -840 Descending Albuquerque Center
02:28PM 33.6589 -112.2022 186° South 261 300 7,500 -840 Descending Albuquerque Center
02:29PM 33.5944 -112.2075 184° South 235 270 6,300 -1,140 Descending Albuquerque Center
02:30PM 33.5314 -112.1964 172° South 230 265 5,200 -1,200 Descending Albuquerque Center
02:31PM 33.4678 -112.1894 175° South 229 264 3,900 -1,140 Descending Albuquerque Center
02:32PM 33.4283 -112.1456 137° Southeast 213 245 2,900 -1,020 Descending Albuquerque Center
02:33PM 33.4311 -112.0772 87° East 172 198 1,900 -840 Descending Albuquerque Center
02:34PM 33.4314 -112.0297 90° East 148 170 1,200 -720 Descending Albuquerque Center
02:36PM 33.4343 -112.0116 40° Northeast  Level Estimated